Terminal Aerodrome Forecast
Issued by NWS

Home | Current Version | Previous Version | Text Only | Print | Product List | Glossary Off
Versions: 1 2 3 4 5 6 7 8 9 10 11 12 13 14

000
FTUS43 KABR 172337
TAFMBG
TAF
KMBG 172337Z 1800/1824 09009KT P6SM BKN200
     FM180100 15008KT P6SM VCSH SCT100 BKN150
     FM180300 18006KT P6SM BKN200
     FM180800 24005KT P6SM FEW250
     FM181100 30005KT P6SM FEW250
     FM181400 33009KT P6SM FEW200=

USA.gov is the U.S. government's official web portal to all federal, state and local government web resources and services.